Estación Meteorológica Peña el Pijo (Robertgarden) [ 01/30/23 14:54:40 CET ]

Fecha Hora Presion(HPa) Temp (°C) Humedad % Rocio (°C) Viento ( m/s) Direccion Lluvia 1Hora(mm) Lluvia 24H(mm) LLuvia Total(mm)
2010-Dec-18 01:01:18 995.300 3.5 46 -7.1         12.43
2010-Dec-18 02:04:15 995.300 7.6 52 -1.7         12.43
2010-Dec-18 03:01:10 995.300 4.7 70 -0.3         12.43
2010-Dec-18 04:01:17 994.700 4.2 80 1.1         12.43
2010-Dec-18 05:01:14 994.300 3.9 82 1.1     0.51 0.51 12.95
2010-Dec-18 06:01:12 993.800 3.9 86 1.8     0.51 1.03 13.46
2010-Dec-18 07:01:12 993.800 4.1 88 2.3       1.03 13.46
2010-Dec-18 08:01:16 994.200 4.3 89 2.6     0.51 1.55 13.98
2010-Dec-18 09:01:16 994.300 4.5 90 3.0       1.55 13.98
2010-Dec-18 10:01:14 994.600 5.6 91 4.2       1.55 13.98
2010-Dec-18 11:01:12 995.000 8.1 91 6.8       1.55 13.98
2010-Dec-18 12:01:13 995.300 8.1 86 5.9       1.55 13.98
2010-Dec-18 13:01:12 994.600 9.6 88 7.7     0.51 2.07 14.50
2010-Dec-18 14:01:12 993.800 9.8 82 6.8       2.07 14.50
2010-Dec-18 15:01:11 993.500 8.1 86 5.9       2.07 14.50
2010-Dec-18 16:01:13 993.200 7.5 88 5.7       2.07 14.50
2010-Dec-18 17:01:16 993.200 7.4 88 5.6       2.07 14.50
2010-Dec-18 18:01:14 993.500 5.8 90 4.3       2.07 14.50
2010-Dec-18 19:01:14 994.000 5.3 92 4.1     0.51 2.59 15.02
2010-Dec-18 20:01:11 993.800 4.8 92 3.6     1.55 4.14 16.57
2010-Dec-18 21:01:11 993.800 4.8 92 3.6       4.14 16.57
2010-Dec-18 22:01:13 993.400 5.2 93 4.2       4.14 16.57
2010-Dec-18 23:01:12 993.300 5.8 93 4.8       4.14 16.57

Temperatura Máxima:    Temperatura Mínima:
Presión Máxima:995.300 Hpa    Presión Mínima:993.200 Hpa


Volver